sensor_id;sensor_type;location;lat;lon;timestamp;P1;durP1;ratioP1;P2;durP2;ratioP2
10985;SDS011;5546;48.714;8.738;2022-08-02T00:01:37;2.37;;;1.90;;
10985;SDS011;5546;48.714;8.738;2022-08-02T00:04:03;2.03;;;1.80;;
10985;SDS011;5546;48.714;8.738;2022-08-02T00:06:29;3.70;;;1.73;;
10985;SDS011;5546;48.714;8.738;2022-08-02T00:08:55;1.80;;;1.60;;
10985;SDS011;5546;48.714;8.738;2022-08-02T00:11:21;3.10;;;1.67;;
10985;SDS011;5546;48.714;8.738;2022-08-02T00:13:46;2.27;;;1.67;;
10985;SDS011;5546;48.714;8.738;2022-08-02T00:16:12;2.10;;;1.90;;
10985;SDS011;5546;48.714;8.738;2022-08-02T00:18:37;4.03;;;2.20;;
10985;SDS011;5546;48.714;8.738;2022-08-02T00:21:03;2.27;;;2.07;;
10985;SDS011;5546;48.714;8.738;2022-08-02T00:23:29;3.50;;;1.80;;
10985;SDS011;5546;48.714;8.738;2022-08-02T00:25:54;2.10;;;1.90;;
10985;SDS011;5546;48.714;8.738;2022-08-02T00:28:22;2.97;;;1.67;;
10985;SDS011;5546;48.714;8.738;2022-08-02T00:30:48;3.50;;;2.07;;
10985;SDS011;5546;48.714;8.738;2022-08-02T00:33:13;3.13;;;1.73;;
10985;SDS011;5546;48.714;8.738;2022-08-02T00:35:39;2.10;;;1.70;;
10985;SDS011;5546;48.714;8.738;2022-08-02T00:38:04;2.83;;;1.90;;
10985;SDS011;5546;48.714;8.738;2022-08-02T00:40:30;1.73;;;1.60;;
10985;SDS011;5546;48.714;8.738;2022-08-02T00:43:00;2.37;;;1.70;;
10985;SDS011;5546;48.714;8.738;2022-08-02T00:45:28;2.03;;;1.70;;
10985;SDS011;5546;48.714;8.738;2022-08-02T00:47:54;1.80;;;1.70;;
10985;SDS011;5546;48.714;8.738;2022-08-02T00:50:20;2.10;;;1.90;;
10985;SDS011;5546;48.714;8.738;2022-08-02T00:52:45;2.77;;;1.90;;
10985;SDS011;5546;48.714;8.738;2022-08-02T00:55:11;1.97;;;1.60;;
10985;SDS011;5546;48.714;8.738;2022-08-02T00:57:36;2.27;;;1.67;;
10985;SDS011;5546;48.714;8.738;2022-08-02T01:00:03;2.00;;;1.80;;
10985;SDS011;5546;48.714;8.738;2022-08-02T01:02:29;1.93;;;1.80;;
10985;SDS011;5546;48.714;8.738;2022-08-02T01:04:55;1.83;;;1.50;;
10985;SDS011;5546;48.714;8.738;2022-08-02T01:07:20;2.80;;;1.70;;
10985;SDS011;5546;48.714;8.738;2022-08-02T01:09:46;2.60;;;1.90;;
10985;SDS011;5546;48.714;8.738;2022-08-02T01:12:12;4.30;;;1.90;;
10985;SDS011;5546;48.714;8.738;2022-08-02T01:14:39;2.23;;;1.97;;
10985;SDS011;5546;48.714;8.738;2022-08-02T01:25:27;2.90;;;1.77;;
10985;SDS011;5546;48.714;8.738;2022-08-02T01:30:54;2.23;;;2.03;;
10985;SDS011;5546;48.714;8.738;2022-08-02T01:33:25;2.87;;;1.97;;
10985;SDS011;5546;48.714;8.738;2022-08-02T01:35:54;3.70;;;1.90;;
10985;SDS011;5546;48.714;8.738;2022-08-02T01:38:28;2.30;;;1.80;;
10985;SDS011;5546;48.714;8.738;2022-08-02T01:40:58;1.77;;;1.57;;
10985;SDS011;5546;48.714;8.738;2022-08-02T01:43:27;1.87;;;1.73;;
10985;SDS011;5546;48.714;8.738;2022-08-02T01:45:54;3.33;;;1.73;;
10985;SDS011;5546;48.714;8.738;2022-08-02T01:48:21;4.47;;;1.90;;
10985;SDS011;5546;48.714;8.738;2022-08-02T01:50:48;3.10;;;1.73;;
10985;SDS011;5546;48.714;8.738;2022-08-02T01:53:15;3.47;;;1.70;;
10985;SDS011;5546;48.714;8.738;2022-08-02T01:55:50;1.97;;;1.87;;
10985;SDS011;5546;48.714;8.738;2022-08-02T01:58:18;2.77;;;2.00;;
10985;SDS011;5546;48.714;8.738;2022-08-02T02:00:47;2.20;;;2.00;;
10985;SDS011;5546;48.714;8.738;2022-08-02T02:03:14;3.47;;;2.00;;
10985;SDS011;5546;48.714;8.738;2022-08-02T02:05:46;2.33;;;1.90;;
10985;SDS011;5546;48.714;8.738;2022-08-02T02:08:12;2.40;;;1.90;;
10985;SDS011;5546;48.714;8.738;2022-08-02T02:10:40;1.80;;;1.70;;
10985;SDS011;5546;48.714;8.738;2022-08-02T02:13:11;2.40;;;1.90;;
10985;SDS011;5546;48.714;8.738;2022-08-02T02:15:39;3.23;;;1.77;;
10985;SDS011;5546;48.714;8.738;2022-08-02T02:18:08;1.80;;;1.70;;
10985;SDS011;5546;48.714;8.738;2022-08-02T02:20:36;1.87;;;1.77;;
10985;SDS011;5546;48.714;8.738;2022-08-02T02:23:02;3.77;;;2.07;;
10985;SDS011;5546;48.714;8.738;2022-08-02T02:25:28;2.00;;;1.90;;
10985;SDS011;5546;48.714;8.738;2022-08-02T02:30:25;3.20;;;1.80;;
10985;SDS011;5546;48.714;8.738;2022-08-02T02:32:54;2.10;;;1.90;;
10985;SDS011;5546;48.714;8.738;2022-08-02T02:35:23;2.00;;;1.80;;
10985;SDS011;5546;48.714;8.738;2022-08-02T02:37:53;2.20;;;2.00;;
10985;SDS011;5546;48.714;8.738;2022-08-02T02:40:22;2.00;;;1.80;;
10985;SDS011;5546;48.714;8.738;2022-08-02T02:42:49;2.73;;;1.87;;
10985;SDS011;5546;48.714;8.738;2022-08-02T02:45:15;2.00;;;1.80;;
10985;SDS011;5546;48.714;8.738;2022-08-02T02:47:43;2.67;;;1.90;;
10985;SDS011;5546;48.714;8.738;2022-08-02T02:50:10;2.30;;;1.93;;
10985;SDS011;5546;48.714;8.738;2022-08-02T02:52:36;2.43;;;2.10;;
10985;SDS011;5546;48.714;8.738;2022-08-02T02:55:04;1.83;;;1.73;;
10985;SDS011;5546;48.714;8.738;2022-08-02T02:57:31;1.90;;;1.80;;
10985;SDS011;5546;48.714;8.738;2022-08-02T02:59:58;1.90;;;1.70;;
10985;SDS011;5546;48.714;8.738;2022-08-02T03:02:24;3.17;;;1.80;;
10985;SDS011;5546;48.714;8.738;2022-08-02T03:04:50;2.13;;;1.83;;
10985;SDS011;5546;48.714;8.738;2022-08-02T03:07:17;1.83;;;1.70;;
10985;SDS011;5546;48.714;8.738;2022-08-02T03:09:43;3.63;;;1.87;;
10985;SDS011;5546;48.714;8.738;2022-08-02T03:12:08;3.50;;;1.80;;
10985;SDS011;5546;48.714;8.738;2022-08-02T03:14:34;2.40;;;1.90;;
10985;SDS011;5546;48.714;8.738;2022-08-02T03:17:07;2.00;;;1.90;;
10985;SDS011;5546;48.714;8.738;2022-08-02T03:19:33;1.80;;;1.70;;
10985;SDS011;5546;48.714;8.738;2022-08-02T03:21:58;2.33;;;1.67;;
10985;SDS011;5546;48.714;8.738;2022-08-02T03:24:24;2.60;;;1.80;;
10985;SDS011;5546;48.714;8.738;2022-08-02T03:26:49;2.67;;;1.80;;
10985;SDS011;5546;48.714;8.738;2022-08-02T03:29:15;2.97;;;1.80;;
10985;SDS011;5546;48.714;8.738;2022-08-02T03:31:44;2.30;;;2.10;;
10985;SDS011;5546;48.714;8.738;2022-08-02T03:34:10;1.90;;;1.80;;
10985;SDS011;5546;48.714;8.738;2022-08-02T03:36:36;3.43;;;1.80;;
10985;SDS011;5546;48.714;8.738;2022-08-02T03:39:04;2.40;;;2.07;;
10985;SDS011;5546;48.714;8.738;2022-08-02T03:41:31;2.17;;;1.97;;
10985;SDS011;5546;48.714;8.738;2022-08-02T03:43:59;4.50;;;2.13;;
10985;SDS011;5546;48.714;8.738;2022-08-02T03:46:26;3.50;;;1.80;;
10985;SDS011;5546;48.714;8.738;2022-08-02T03:48:52;2.73;;;2.07;;
10985;SDS011;5546;48.714;8.738;2022-08-02T03:51:19;2.70;;;1.80;;
10985;SDS011;5546;48.714;8.738;2022-08-02T03:53:45;4.17;;;2.17;;
10985;SDS011;5546;48.714;8.738;2022-08-02T03:56:12;2.63;;;2.07;;
10985;SDS011;5546;48.714;8.738;2022-08-02T03:58:39;2.37;;;2.17;;
10985;SDS011;5546;48.714;8.738;2022-08-02T04:01:05;2.90;;;2.00;;
10985;SDS011;5546;48.714;8.738;2022-08-02T04:03:31;3.33;;;1.97;;
10985;SDS011;5546;48.714;8.738;2022-08-02T04:05:56;2.00;;;1.57;;
10985;SDS011;5546;48.714;8.738;2022-08-02T04:08:22;1.80;;;1.70;;
10985;SDS011;5546;48.714;8.738;2022-08-02T04:10:47;2.13;;;1.93;;
10985;SDS011;5546;48.714;8.738;2022-08-02T04:13:42;1.90;;;1.80;;
10985;SDS011;5546;48.714;8.738;2022-08-02T04:16:11;3.23;;;1.90;;
10985;SDS011;5546;48.714;8.738;2022-08-02T04:18:42;2.80;;;1.90;;
10985;SDS011;5546;48.714;8.738;2022-08-02T04:21:18;1.80;;;1.70;;
10985;SDS011;5546;48.714;8.738;2022-08-02T04:23:45;1.90;;;1.80;;
10985;SDS011;5546;48.714;8.738;2022-08-02T04:26:12;2.80;;;2.13;;
10985;SDS011;5546;48.714;8.738;2022-08-02T04:28:39;3.00;;;1.63;;
10985;SDS011;5546;48.714;8.738;2022-08-02T04:31:06;3.23;;;2.00;;
10985;SDS011;5546;48.714;8.738;2022-08-02T04:33:33;2.00;;;1.73;;
10985;SDS011;5546;48.714;8.738;2022-08-02T04:35:59;2.10;;;1.90;;
10985;SDS011;5546;48.714;8.738;2022-08-02T04:38:25;2.87;;;1.80;;
10985;SDS011;5546;48.714;8.738;2022-08-02T04:40:51;2.63;;;2.00;;
10985;SDS011;5546;48.714;8.738;2022-08-02T04:43:18;2.10;;;1.90;;
10985;SDS011;5546;48.714;8.738;2022-08-02T04:45:44;2.20;;;2.00;;
10985;SDS011;5546;48.714;8.738;2022-08-02T04:48:12;3.33;;;1.83;;
10985;SDS011;5546;48.714;8.738;2022-08-02T04:50:37;1.87;;;1.63;;
10985;SDS011;5546;48.714;8.738;2022-08-02T04:53:03;2.47;;;1.87;;
10985;SDS011;5546;48.714;8.738;2022-08-02T04:55:28;3.50;;;1.90;;
10985;SDS011;5546;48.714;8.738;2022-08-02T04:57:54;2.30;;;2.10;;
10985;SDS011;5546;48.714;8.738;2022-08-02T05:00:21;2.07;;;1.90;;
10985;SDS011;5546;48.714;8.738;2022-08-02T05:02:47;2.50;;;2.20;;
10985;SDS011;5546;48.714;8.738;2022-08-02T05:05:13;2.10;;;2.00;;
10985;SDS011;5546;48.714;8.738;2022-08-02T05:07:40;2.10;;;1.93;;
10985;SDS011;5546;48.714;8.738;2022-08-02T05:10:05;3.70;;;1.90;;
10985;SDS011;5546;48.714;8.738;2022-08-02T05:12:31;2.47;;;1.70;;
10985;SDS011;5546;48.714;8.738;2022-08-02T05:14:56;2.13;;;1.93;;
10985;SDS011;5546;48.714;8.738;2022-08-02T05:17:22;2.07;;;1.80;;
10985;SDS011;5546;48.714;8.738;2022-08-02T05:19:47;2.70;;;2.10;;
10985;SDS011;5546;48.714;8.738;2022-08-02T05:22:13;1.90;;;1.70;;
10985;SDS011;5546;48.714;8.738;2022-08-02T05:24:39;3.67;;;1.90;;
10985;SDS011;5546;48.714;8.738;2022-08-02T05:27:04;2.30;;;2.00;;
10985;SDS011;5546;48.714;8.738;2022-08-02T05:29:30;2.50;;;2.00;;
10985;SDS011;5546;48.714;8.738;2022-08-02T05:31:56;2.10;;;1.90;;
10985;SDS011;5546;48.714;8.738;2022-08-02T05:34:22;2.97;;;2.10;;
10985;SDS011;5546;48.714;8.738;2022-08-02T05:36:47;2.90;;;1.90;;
10985;SDS011;5546;48.714;8.738;2022-08-02T05:39:13;2.10;;;1.90;;
10985;SDS011;5546;48.714;8.738;2022-08-02T05:41:38;3.22;;;1.90;;
10985;SDS011;5546;48.714;8.738;2022-08-02T05:44:04;2.15;;;1.92;;
10985;SDS011;5546;48.714;8.738;2022-08-02T05:46:30;2.13;;;1.92;;
10985;SDS011;5546;48.714;8.738;2022-08-02T05:48:55;3.47;;;2.08;;
10985;SDS011;5546;48.714;8.738;2022-08-02T05:51:22;2.33;;;1.75;;
10985;SDS011;5546;48.714;8.738;2022-08-02T05:59:25;2.00;;;1.67;;
10985;SDS011;5546;48.714;8.738;2022-08-02T06:05:18;2.10;;;1.90;;
10985;SDS011;5546;48.714;8.738;2022-08-02T06:07:45;1.92;;;1.83;;
10985;SDS011;5546;48.714;8.738;2022-08-02T06:10:12;2.92;;;1.73;;
10985;SDS011;5546;48.714;8.738;2022-08-02T06:12:51;2.40;;;1.92;;
10985;SDS011;5546;48.714;8.738;2022-08-02T06:15:27;4.80;;;2.03;;
10985;SDS011;5546;48.714;8.738;2022-08-02T06:17:54;3.78;;;2.13;;
10985;SDS011;5546;48.714;8.738;2022-08-02T06:20:21;1.88;;;1.70;;
10985;SDS011;5546;48.714;8.738;2022-08-02T06:22:48;2.47;;;1.90;;
10985;SDS011;5546;48.714;8.738;2022-08-02T06:25:14;1.70;;;1.60;;
10985;SDS011;5546;48.714;8.738;2022-08-02T06:27:40;3.67;;;1.80;;
10985;SDS011;5546;48.714;8.738;2022-08-02T06:30:06;2.08;;;1.88;;
10985;SDS011;5546;48.714;8.738;2022-08-02T06:32:33;3.58;;;1.90;;
10985;SDS011;5546;48.714;8.738;2022-08-02T06:34:59;2.15;;;1.83;;
10985;SDS011;5546;48.714;8.738;2022-08-02T06:37:27;2.60;;;2.00;;
10985;SDS011;5546;48.714;8.738;2022-08-02T06:40:22;3.45;;;2.03;;
10985;SDS011;5546;48.714;8.738;2022-08-02T06:42:54;3.10;;;1.80;;
10985;SDS011;5546;48.714;8.738;2022-08-02T06:45:25;2.47;;;2.28;;
10985;SDS011;5546;48.714;8.738;2022-08-02T06:47:51;3.95;;;2.08;;
10985;SDS011;5546;48.714;8.738;2022-08-02T06:50:17;3.08;;;2.10;;
10985;SDS011;5546;48.714;8.738;2022-08-02T06:52:43;2.10;;;1.88;;
10985;SDS011;5546;48.714;8.738;2022-08-02T06:55:08;3.20;;;1.88;;
10985;SDS011;5546;48.714;8.738;2022-08-02T06:57:34;1.90;;;1.80;;
10985;SDS011;5546;48.714;8.738;2022-08-02T07:00:00;4.30;;;2.00;;
10985;SDS011;5546;48.714;8.738;2022-08-02T07:02:34;2.42;;;2.00;;
10985;SDS011;5546;48.714;8.738;2022-08-02T07:05:00;5.85;;;2.00;;
10985;SDS011;5546;48.714;8.738;2022-08-02T07:07:26;3.20;;;2.03;;
10985;SDS011;5546;48.714;8.738;2022-08-02T07:09:52;3.10;;;1.88;;
10985;SDS011;5546;48.714;8.738;2022-08-02T07:12:17;2.90;;;2.03;;
10985;SDS011;5546;48.714;8.738;2022-08-02T07:14:43;3.70;;;1.90;;
10985;SDS011;5546;48.714;8.738;2022-08-02T07:17:09;3.15;;;2.00;;
10985;SDS011;5546;48.714;8.738;2022-08-02T07:19:34;2.85;;;1.85;;
10985;SDS011;5546;48.714;8.738;2022-08-02T07:22:00;4.95;;;2.15;;
10985;SDS011;5546;48.714;8.738;2022-08-02T07:24:26;2.25;;;2.05;;
10985;SDS011;5546;48.714;8.738;2022-08-02T07:26:52;3.10;;;2.35;;
10985;SDS011;5546;48.714;8.738;2022-08-02T07:29:17;4.28;;;2.20;;
10985;SDS011;5546;48.714;8.738;2022-08-02T07:31:43;2.53;;;2.08;;
10985;SDS011;5546;48.714;8.738;2022-08-02T07:34:08;7.32;;;2.47;;
10985;SDS011;5546;48.714;8.738;2022-08-02T07:36:34;2.72;;;2.30;;
10985;SDS011;5546;48.714;8.738;2022-08-02T07:38:59;3.65;;;2.05;;
10985;SDS011;5546;48.714;8.738;2022-08-02T07:41:25;2.95;;;2.50;;
10985;SDS011;5546;48.714;8.738;2022-08-02T07:43:50;2.92;;;2.55;;
10985;SDS011;5546;48.714;8.738;2022-08-02T07:46:16;4.80;;;2.60;;
10985;SDS011;5546;48.714;8.738;2022-08-02T07:48:42;4.35;;;2.63;;
10985;SDS011;5546;48.714;8.738;2022-08-02T07:51:07;8.90;;;2.33;;
10985;SDS011;5546;48.714;8.738;2022-08-02T07:53:33;8.48;;;2.58;;
10985;SDS011;5546;48.714;8.738;2022-08-02T07:55:59;4.32;;;2.92;;
10985;SDS011;5546;48.714;8.738;2022-08-02T07:58:25;3.92;;;3.00;;
10985;SDS011;5546;48.714;8.738;2022-08-02T08:00:50;3.40;;;3.03;;
10985;SDS011;5546;48.714;8.738;2022-08-02T08:03:16;3.85;;;3.42;;
10985;SDS011;5546;48.714;8.738;2022-08-02T08:05:41;4.15;;;3.40;;
10985;SDS011;5546;48.714;8.738;2022-08-02T08:08:07;3.40;;;3.03;;
10985;SDS011;5546;48.714;8.738;2022-08-02T08:10:33;5.05;;;3.53;;
10985;SDS011;5546;48.714;8.738;2022-08-02T08:12:59;4.80;;;3.20;;
10985;SDS011;5546;48.714;8.738;2022-08-02T08:15:25;5.10;;;3.72;;
10985;SDS011;5546;48.714;8.738;2022-08-02T08:17:50;3.75;;;3.30;;
10985;SDS011;5546;48.714;8.738;2022-08-02T08:20:16;3.17;;;2.97;;
10985;SDS011;5546;48.714;8.738;2022-08-02T08:22:41;3.88;;;3.30;;
10985;SDS011;5546;48.714;8.738;2022-08-02T08:25:07;4.60;;;3.50;;
10985;SDS011;5546;48.714;8.738;2022-08-02T08:27:32;3.78;;;3.20;;
10985;SDS011;5546;48.714;8.738;2022-08-02T08:29:58;3.60;;;3.30;;
10985;SDS011;5546;48.714;8.738;2022-08-02T08:32:24;3.40;;;3.10;;
10985;SDS011;5546;48.714;8.738;2022-08-02T08:34:50;3.30;;;3.03;;
10985;SDS011;5546;48.714;8.738;2022-08-02T08:37:17;3.20;;;3.00;;
10985;SDS011;5546;48.714;8.738;2022-08-02T08:39:43;3.45;;;3.05;;
10985;SDS011;5546;48.714;8.738;2022-08-02T08:42:09;3.22;;;2.92;;
10985;SDS011;5546;48.714;8.738;2022-08-02T08:44:35;6.53;;;3.65;;
10985;SDS011;5546;48.714;8.738;2022-08-02T08:47:01;4.03;;;3.10;;
10985;SDS011;5546;48.714;8.738;2022-08-02T08:52:02;4.57;;;3.00;;
10985;SDS011;5546;48.714;8.738;2022-08-02T08:54:29;3.88;;;2.90;;
10985;SDS011;5546;48.714;8.738;2022-08-02T08:56:56;3.20;;;2.45;;
10985;SDS011;5546;48.714;8.738;2022-08-02T08:59:23;2.90;;;2.70;;
10985;SDS011;5546;48.714;8.738;2022-08-02T09:01:49;3.20;;;2.90;;
10985;SDS011;5546;48.714;8.738;2022-08-02T09:04:15;3.65;;;3.35;;
10985;SDS011;5546;48.714;8.738;2022-08-02T09:06:42;3.22;;;2.88;;
10985;SDS011;5546;48.714;8.738;2022-08-02T09:09:07;2.97;;;2.70;;
10985;SDS011;5546;48.714;8.738;2022-08-02T09:11:33;6.57;;;2.90;;
10985;SDS011;5546;48.714;8.738;2022-08-02T09:14:00;3.15;;;2.70;;
10985;SDS011;5546;48.714;8.738;2022-08-02T09:18:58;3.40;;;3.10;;
10985;SDS011;5546;48.714;8.738;2022-08-02T09:21:35;3.20;;;2.70;;
10985;SDS011;5546;48.714;8.738;2022-08-02T09:24:01;3.20;;;3.00;;
10985;SDS011;5546;48.714;8.738;2022-08-02T09:26:38;3.42;;;2.90;;
10985;SDS011;5546;48.714;8.738;2022-08-02T09:29:05;3.20;;;2.72;;
10985;SDS011;5546;48.714;8.738;2022-08-02T09:31:32;3.10;;;2.90;;
10985;SDS011;5546;48.714;8.738;2022-08-02T09:33:59;4.28;;;2.75;;
10985;SDS011;5546;48.714;8.738;2022-08-02T09:36:25;4.38;;;3.17;;
10985;SDS011;5546;48.714;8.738;2022-08-02T09:39:02;2.75;;;2.55;;
10985;SDS011;5546;48.714;8.738;2022-08-02T09:41:30;3.15;;;2.85;;
10985;SDS011;5546;48.714;8.738;2022-08-02T09:43:58;3.65;;;3.08;;
10985;SDS011;5546;48.714;8.738;2022-08-02T09:46:28;3.17;;;2.75;;
10985;SDS011;5546;48.714;8.738;2022-08-02T09:49:00;4.65;;;3.05;;
10985;SDS011;5546;48.714;8.738;2022-08-02T09:51:28;3.83;;;3.20;;
10985;SDS011;5546;48.714;8.738;2022-08-02T09:53:59;11.05;;;10.15;;
10985;SDS011;5546;48.714;8.738;2022-08-02T09:56:27;3.00;;;2.80;;
10985;SDS011;5546;48.714;8.738;2022-08-02T09:59:07;3.50;;;2.85;;
10985;SDS011;5546;48.714;8.738;2022-08-02T10:01:33;5.10;;;3.25;;
10985;SDS011;5546;48.714;8.738;2022-08-02T10:04:00;5.32;;;3.03;;
10985;SDS011;5546;48.714;8.738;2022-08-02T10:06:27;3.22;;;2.78;;
10985;SDS011;5546;48.714;8.738;2022-08-02T10:08:53;3.42;;;3.15;;
10985;SDS011;5546;48.714;8.738;2022-08-02T10:11:24;3.53;;;2.78;;
10985;SDS011;5546;48.714;8.738;2022-08-02T10:13:50;3.95;;;3.00;;
10985;SDS011;5546;48.714;8.738;2022-08-02T10:16:17;3.67;;;2.90;;
10985;SDS011;5546;48.714;8.738;2022-08-02T10:18:47;3.03;;;2.83;;
10985;SDS011;5546;48.714;8.738;2022-08-02T10:21:18;2.90;;;2.67;;
10985;SDS011;5546;48.714;8.738;2022-08-02T10:23:53;3.25;;;2.95;;
10985;SDS011;5546;48.714;8.738;2022-08-02T10:26:26;3.22;;;2.92;;
10985;SDS011;5546;48.714;8.738;2022-08-02T10:28:53;2.97;;;2.78;;
10985;SDS011;5546;48.714;8.738;2022-08-02T10:31:19;3.72;;;2.75;;
10985;SDS011;5546;48.714;8.738;2022-08-02T10:33:47;4.45;;;2.58;;
10985;SDS011;5546;48.714;8.738;2022-08-02T10:36:16;5.93;;;2.80;;
10985;SDS011;5546;48.714;8.738;2022-08-02T10:38:43;3.95;;;3.00;;
10985;SDS011;5546;48.714;8.738;2022-08-02T10:41:09;3.13;;;2.70;;
10985;SDS011;5546;48.714;8.738;2022-08-02T10:54:17;4.60;;;3.30;;
10985;SDS011;5546;48.714;8.738;2022-08-02T10:56:45;4.13;;;3.30;;
10985;SDS011;5546;48.714;8.738;2022-08-02T11:02:06;3.75;;;2.80;;
10985;SDS011;5546;48.714;8.738;2022-08-02T11:07:14;4.32;;;3.00;;
10985;SDS011;5546;48.714;8.738;2022-08-02T11:09:41;2.97;;;2.70;;
10985;SDS011;5546;48.714;8.738;2022-08-02T11:12:09;2.88;;;2.67;;
10985;SDS011;5546;48.714;8.738;2022-08-02T11:14:39;3.20;;;2.90;;
10985;SDS011;5546;48.714;8.738;2022-08-02T11:22:40;3.13;;;2.80;;
10985;SDS011;5546;48.714;8.738;2022-08-02T11:27:51;2.83;;;2.63;;
10985;SDS011;5546;48.714;8.738;2022-08-02T11:30:19;5.78;;;2.50;;
10985;SDS011;5546;48.714;8.738;2022-08-02T11:32:46;3.65;;;2.78;;
10985;SDS011;5546;48.714;8.738;2022-08-02T11:35:12;3.20;;;2.63;;
10985;SDS011;5546;48.714;8.738;2022-08-02T11:37:38;3.47;;;2.58;;
10985;SDS011;5546;48.714;8.738;2022-08-02T11:40:16;3.00;;;2.70;;
10985;SDS011;5546;48.714;8.738;2022-08-02T11:42:43;4.40;;;2.97;;
10985;SDS011;5546;48.714;8.738;2022-08-02T11:45:11;3.92;;;2.50;;
10985;SDS011;5546;48.714;8.738;2022-08-02T11:47:45;2.85;;;2.65;;
10985;SDS011;5546;48.714;8.738;2022-08-02T11:50:11;3.80;;;3.00;;
10985;SDS011;5546;48.714;8.738;2022-08-02T11:52:36;3.35;;;2.58;;
10985;SDS011;5546;48.714;8.738;2022-08-02T11:55:03;2.80;;;2.60;;
10985;SDS011;5546;48.714;8.738;2022-08-02T11:57:31;3.53;;;2.88;;
10985;SDS011;5546;48.714;8.738;2022-08-02T11:59:57;4.65;;;2.72;;
10985;SDS011;5546;48.714;8.738;2022-08-02T12:02:26;4.32;;;2.78;;
10985;SDS011;5546;48.714;8.738;2022-08-02T12:05:05;3.05;;;2.80;;
10985;SDS011;5546;48.714;8.738;2022-08-02T12:07:32;4.45;;;2.80;;
10985;SDS011;5546;48.714;8.738;2022-08-02T12:15:43;4.65;;;2.70;;
10985;SDS011;5546;48.714;8.738;2022-08-02T12:18:11;3.95;;;2.70;;
10985;SDS011;5546;48.714;8.738;2022-08-02T12:21:00;3.22;;;3.03;;
10985;SDS011;5546;48.714;8.738;2022-08-02T12:23:26;3.40;;;3.10;;
10985;SDS011;5546;48.714;8.738;2022-08-02T12:26:02;5.38;;;2.83;;
10985;SDS011;5546;48.714;8.738;2022-08-02T12:28:32;3.40;;;2.58;;
10985;SDS011;5546;48.714;8.738;2022-08-02T12:31:00;4.82;;;2.92;;
10985;SDS011;5546;48.714;8.738;2022-08-02T12:33:26;2.90;;;2.70;;
10985;SDS011;5546;48.714;8.738;2022-08-02T12:35:53;3.05;;;2.75;;
10985;SDS011;5546;48.714;8.738;2022-08-02T12:38:20;3.85;;;2.70;;
10985;SDS011;5546;48.714;8.738;2022-08-02T12:40:46;5.10;;;2.90;;
10985;SDS011;5546;48.714;8.738;2022-08-02T12:43:19;3.70;;;2.72;;
10985;SDS011;5546;48.714;8.738;2022-08-02T12:45:47;3.10;;;2.60;;
10985;SDS011;5546;48.714;8.738;2022-08-02T12:48:15;3.53;;;2.90;;
10985;SDS011;5546;48.714;8.738;2022-08-02T12:50:53;3.60;;;2.85;;
10985;SDS011;5546;48.714;8.738;2022-08-02T12:53:19;3.03;;;2.65;;
10985;SDS011;5546;48.714;8.738;2022-08-02T12:58:15;3.20;;;2.90;;
10985;SDS011;5546;48.714;8.738;2022-08-02T13:00:41;3.38;;;2.58;;
10985;SDS011;5546;48.714;8.738;2022-08-02T13:03:07;3.58;;;2.80;;
10985;SDS011;5546;48.714;8.738;2022-08-02T13:05:34;2.65;;;2.45;;
10985;SDS011;5546;48.714;8.738;2022-08-02T13:08:00;3.40;;;2.60;;
10985;SDS011;5546;48.714;8.738;2022-08-02T13:10:27;3.33;;;3.00;;
10985;SDS011;5546;48.714;8.738;2022-08-02T13:12:53;4.53;;;2.60;;
10985;SDS011;5546;48.714;8.738;2022-08-02T13:15:19;2.80;;;2.60;;
10985;SDS011;5546;48.714;8.738;2022-08-02T13:17:46;3.53;;;3.10;;
10985;SDS011;5546;48.714;8.738;2022-08-02T13:20:11;5.90;;;2.55;;
10985;SDS011;5546;48.714;8.738;2022-08-02T13:22:39;2.90;;;2.70;;
10985;SDS011;5546;48.714;8.738;2022-08-02T13:25:06;3.00;;;2.80;;
10985;SDS011;5546;48.714;8.738;2022-08-02T13:27:32;3.63;;;2.72;;
10985;SDS011;5546;48.714;8.738;2022-08-02T13:29:58;3.38;;;2.78;;
10985;SDS011;5546;48.714;8.738;2022-08-02T13:32:25;2.72;;;2.53;;
10985;SDS011;5546;48.714;8.738;2022-08-02T13:34:53;3.00;;;2.70;;
10985;SDS011;5546;48.714;8.738;2022-08-02T13:37:19;3.80;;;2.90;;
10985;SDS011;5546;48.714;8.738;2022-08-02T13:39:45;2.97;;;2.78;;
10985;SDS011;5546;48.714;8.738;2022-08-02T13:42:11;3.25;;;2.95;;
10985;SDS011;5546;48.714;8.738;2022-08-02T13:44:36;3.85;;;2.83;;
10985;SDS011;5546;48.714;8.738;2022-08-02T13:47:02;3.42;;;3.20;;
10985;SDS011;5546;48.714;8.738;2022-08-02T13:49:28;5.13;;;3.10;;
10985;SDS011;5546;48.714;8.738;2022-08-02T13:51:53;3.28;;;2.72;;
10985;SDS011;5546;48.714;8.738;2022-08-02T13:54:19;3.15;;;2.85;;
10985;SDS011;5546;48.714;8.738;2022-08-02T13:56:44;5.47;;;2.95;;
10985;SDS011;5546;48.714;8.738;2022-08-02T13:59:10;3.63;;;2.88;;
10985;SDS011;5546;48.714;8.738;2022-08-02T14:01:36;3.72;;;3.20;;
10985;SDS011;5546;48.714;8.738;2022-08-02T14:04:02;3.88;;;2.85;;
10985;SDS011;5546;48.714;8.738;2022-08-02T14:06:27;4.38;;;3.05;;
10985;SDS011;5546;48.714;8.738;2022-08-02T14:08:53;3.63;;;2.50;;
10985;SDS011;5546;48.714;8.738;2022-08-02T14:11:19;4.32;;;2.97;;
10985;SDS011;5546;48.714;8.738;2022-08-02T14:13:44;2.83;;;2.63;;
10985;SDS011;5546;48.714;8.738;2022-08-02T14:16:10;3.05;;;2.80;;
10985;SDS011;5546;48.714;8.738;2022-08-02T14:18:36;3.47;;;2.80;;
10985;SDS011;5546;48.714;8.738;2022-08-02T14:21:02;3.00;;;2.80;;
10985;SDS011;5546;48.714;8.738;2022-08-02T14:23:27;3.22;;;2.80;;
10985;SDS011;5546;48.714;8.738;2022-08-02T14:25:54;8.60;;;3.65;;
10985;SDS011;5546;48.714;8.738;2022-08-02T14:28:20;6.25;;;2.97;;
10985;SDS011;5546;48.714;8.738;2022-08-02T14:30:46;5.70;;;2.95;;
10985;SDS011;5546;48.714;8.738;2022-08-02T14:33:11;3.67;;;2.78;;
10985;SDS011;5546;48.714;8.738;2022-08-02T14:35:37;3.00;;;2.67;;
10985;SDS011;5546;48.714;8.738;2022-08-02T14:38:03;2.95;;;2.60;;
10985;SDS011;5546;48.714;8.738;2022-08-02T14:40:28;3.38;;;2.60;;
10985;SDS011;5546;48.714;8.738;2022-08-02T14:42:54;3.00;;;2.65;;
10985;SDS011;5546;48.714;8.738;2022-08-02T14:45:20;2.78;;;2.25;;
10985;SDS011;5546;48.714;8.738;2022-08-02T14:47:47;2.80;;;2.60;;
10985;SDS011;5546;48.714;8.738;2022-08-02T14:50:13;2.88;;;2.67;;
10985;SDS011;5546;48.714;8.738;2022-08-02T14:52:41;4.03;;;3.08;;
10985;SDS011;5546;48.714;8.738;2022-08-02T14:55:06;4.38;;;2.45;;
10985;SDS011;5546;48.714;8.738;2022-08-02T14:57:32;3.80;;;2.70;;
10985;SDS011;5546;48.714;8.738;2022-08-02T14:59:58;4.25;;;2.72;;
10985;SDS011;5546;48.714;8.738;2022-08-02T15:02:26;3.88;;;3.15;;
10985;SDS011;5546;48.714;8.738;2022-08-02T15:04:51;3.10;;;2.80;;
10985;SDS011;5546;48.714;8.738;2022-08-02T15:07:17;3.10;;;2.90;;
10985;SDS011;5546;48.714;8.738;2022-08-02T15:09:43;3.50;;;2.92;;
10985;SDS011;5546;48.714;8.738;2022-08-02T15:12:09;3.10;;;2.80;;
10985;SDS011;5546;48.714;8.738;2022-08-02T15:14:36;2.95;;;2.75;;
10985;SDS011;5546;48.714;8.738;2022-08-02T15:17:02;4.95;;;3.17;;
10985;SDS011;5546;48.714;8.738;2022-08-02T15:19:28;3.28;;;2.97;;
10985;SDS011;5546;48.714;8.738;2022-08-02T15:21:54;3.00;;;2.80;;
10985;SDS011;5546;48.714;8.738;2022-08-02T15:24:19;2.85;;;2.55;;
10985;SDS011;5546;48.714;8.738;2022-08-02T15:26:45;3.30;;;3.00;;
10985;SDS011;5546;48.714;8.738;2022-08-02T15:29:11;4.15;;;3.00;;
10985;SDS011;5546;48.714;8.738;2022-08-02T15:31:36;3.42;;;2.80;;
10985;SDS011;5546;48.714;8.738;2022-08-02T15:34:02;4.80;;;3.10;;
10985;SDS011;5546;48.714;8.738;2022-08-02T15:36:27;4.13;;;2.70;;
10985;SDS011;5546;48.714;8.738;2022-08-02T15:38:53;5.45;;;2.58;;
10985;SDS011;5546;48.714;8.738;2022-08-02T15:41:19;3.20;;;2.90;;
10985;SDS011;5546;48.714;8.738;2022-08-02T15:43:45;4.15;;;3.05;;
10985;SDS011;5546;48.714;8.738;2022-08-02T15:46:10;3.78;;;2.45;;
10985;SDS011;5546;48.714;8.738;2022-08-02T15:48:36;2.70;;;2.50;;
10985;SDS011;5546;48.714;8.738;2022-08-02T15:51:03;3.00;;;2.67;;
10985;SDS011;5546;48.714;8.738;2022-08-02T15:53:28;3.13;;;2.83;;
10985;SDS011;5546;48.714;8.738;2022-08-02T15:55:54;3.05;;;2.85;;
10985;SDS011;5546;48.714;8.738;2022-08-02T15:58:20;4.05;;;2.75;;
10985;SDS011;5546;48.714;8.738;2022-08-02T16:00:46;3.50;;;3.20;;